createdAt,value
2024-05-09T00:00:08.353Z,12.40
2024-05-09T00:02:37.040Z,12.37
2024-05-09T00:05:04.007Z,12.35
2024-05-09T00:07:30.748Z,12.33
2024-05-09T00:09:57.359Z,12.33
2024-05-09T00:12:24.180Z,12.28
2024-05-09T00:14:50.913Z,12.26
2024-05-09T00:17:17.614Z,12.23
2024-05-09T00:19:45.499Z,12.23
2024-05-09T00:22:12.489Z,12.22
2024-05-09T00:24:39.108Z,12.16
2024-05-09T00:27:05.954Z,12.16
2024-05-09T00:29:32.796Z,12.14
2024-05-09T00:31:59.538Z,12.07
2024-05-09T00:34:26.365Z,12.04
2024-05-09T00:36:53.082Z,12.02
2024-05-09T00:39:19.733Z,12.01
2024-05-09T00:41:46.323Z,11.97
2024-05-09T00:44:13.178Z,11.96
2024-05-09T00:46:40.095Z,11.94
2024-05-09T00:49:07.300Z,11.91
2024-05-09T00:51:34.065Z,11.88
2024-05-09T00:54:01.258Z,11.90
2024-05-09T00:56:28.509Z,11.86
2024-05-09T00:58:55.772Z,11.83
2024-05-09T01:01:24.709Z,11.80
2024-05-09T01:03:51.941Z,11.78
2024-05-09T01:06:20.778Z,11.75
2024-05-09T01:08:47.763Z,11.76
2024-05-09T01:11:16.416Z,11.74
2024-05-09T01:13:44.838Z,11.70
2024-05-09T01:16:13.289Z,11.69
2024-05-09T01:18:40.555Z,11.65
2024-05-09T01:21:09.479Z,11.63
2024-05-09T01:23:36.437Z,11.63
2024-05-09T01:26:03.243Z,11.61
2024-05-09T01:28:30.784Z,11.57
2024-05-09T01:30:57.402Z,11.56
2024-05-09T01:33:24.256Z,11.52
2024-05-09T01:35:50.989Z,11.49
2024-05-09T01:38:19.816Z,11.45
2024-05-09T01:40:48.123Z,11.41
2024-05-09T01:43:15.382Z,11.38
2024-05-09T01:45:42.265Z,11.34
2024-05-09T01:48:10.168Z,11.30
2024-05-09T01:50:41.361Z,11.27
2024-05-09T01:53:11.158Z,11.25
2024-05-09T01:55:38.053Z,11.22
2024-05-09T01:58:05.078Z,11.17
2024-05-09T02:00:38.804Z,11.17
2024-05-09T02:03:10.733Z,11.17
2024-05-09T02:05:39.295Z,11.15
2024-05-09T02:08:06.936Z,11.10
2024-05-09T02:10:33.797Z,11.08
2024-05-09T02:13:00.915Z,11.08
2024-05-09T02:15:27.698Z,11.10
2024-05-09T02:17:54.584Z,11.08
2024-05-09T02:20:30.322Z,11.02
2024-05-09T02:23:04.150Z,10.99
2024-05-09T02:25:31.622Z,10.96
2024-05-09T02:27:58.393Z,10.95
2024-05-09T02:30:35.050Z,10.95
2024-05-09T02:33:06.387Z,10.91
2024-05-09T02:35:33.563Z,10.86
2024-05-09T02:38:00.454Z,10.87
2024-05-09T02:40:35.620Z,10.84
2024-05-09T02:43:05.491Z,10.82
2024-05-09T02:45:32.376Z,10.77
2024-05-09T02:47:59.305Z,10.77
2024-05-09T02:50:33.968Z,10.76
2024-05-09T02:53:05.306Z,10.77
2024-05-09T02:55:32.164Z,10.76
2024-05-09T02:57:58.919Z,10.75
2024-05-09T03:00:34.540Z,10.74
2024-05-09T03:03:07.621Z,10.72
2024-05-09T03:05:37.902Z,10.69
2024-05-09T03:08:05.099Z,10.67
2024-05-09T03:10:36.168Z,10.64
2024-05-09T03:13:14.450Z,10.62
2024-05-09T03:15:43.089Z,10.59
2024-05-09T03:18:10.682Z,10.56
2024-05-09T03:20:38.301Z,10.50
2024-05-09T03:23:09.516Z,10.48
2024-05-09T03:25:36.870Z,10.47
2024-05-09T03:28:04.010Z,10.43
2024-05-09T03:30:39.526Z,10.40
2024-05-09T03:33:19.973Z,10.35
2024-05-09T03:35:48.233Z,10.31
2024-05-09T03:38:15.490Z,10.31
2024-05-09T03:40:46.771Z,10.28
2024-05-09T03:43:13.980Z,10.21
2024-05-09T03:45:40.849Z,10.19
2024-05-09T03:48:08.230Z,10.18
2024-05-09T03:50:36.329Z,10.19
2024-05-09T03:53:04.061Z,10.18
2024-05-09T03:55:31.111Z,10.15
2024-05-09T03:57:57.882Z,10.17
2024-05-09T04:00:31.438Z,10.13
2024-05-09T04:03:06.255Z,10.11
2024-05-09T04:05:35.008Z,10.09
2024-05-09T04:08:02.108Z,10.10
2024-05-09T04:10:33.445Z,10.09
2024-05-09T04:13:02.496Z,10.10
2024-05-09T04:15:29.548Z,10.09
2024-05-09T04:17:56.496Z,10.02
2024-05-09T04:20:33.808Z,10.00
2024-05-09T04:23:05.748Z,10.01
2024-05-09T04:25:32.674Z,10.00
2024-05-09T04:27:59.385Z,10.00
2024-05-09T04:30:34.879Z,10.00
2024-05-09T04:33:07.698Z,10.02
2024-05-09T04:35:35.999Z,10.03
2024-05-09T04:38:04.728Z,10.01
2024-05-09T04:40:35.016Z,10.00
2024-05-09T04:43:05.129Z,10.02
2024-05-09T04:45:32.152Z,9.98
2024-05-09T04:47:59.072Z,10.00
2024-05-09T04:50:35.255Z,10.10
2024-05-09T04:53:05.531Z,10.08
2024-05-09T04:55:33.146Z,10.10
2024-05-09T04:58:00.045Z,10.13
2024-05-09T05:00:34.685Z,10.14
2024-05-09T05:03:10.367Z,10.19
2024-05-09T05:05:42.635Z,10.24
2024-05-09T05:08:18.053Z,10.24
2024-05-09T05:10:46.875Z,10.25
2024-05-09T05:13:22.573Z,10.32
2024-05-09T05:15:56.962Z,10.43
2024-05-09T05:18:25.723Z,10.56
2024-05-09T05:20:52.963Z,10.68
2024-05-09T05:23:21.294Z,10.84
2024-05-09T05:25:49.576Z,10.94
2024-05-09T05:28:17.097Z,11.07
2024-05-09T05:30:44.028Z,11.23
2024-05-09T05:33:12.796Z,11.38
2024-05-09T05:35:40.510Z,11.41
2024-05-09T05:38:08.285Z,11.45
2024-05-09T05:40:38.317Z,11.55
2024-05-09T05:43:08.442Z,11.68
2024-05-09T05:45:35.624Z,11.84
2024-05-09T05:48:06.869Z,12.01
2024-05-09T05:50:36.849Z,12.16
2024-05-09T05:53:09.674Z,12.32
2024-05-09T05:55:37.694Z,12.49
2024-05-09T05:58:04.702Z,12.66
2024-05-09T06:00:38.327Z,12.73
2024-05-09T06:03:11.688Z,12.76
2024-05-09T06:05:40.240Z,12.84
2024-05-09T06:08:07.746Z,13.06
2024-05-09T06:10:38.596Z,13.20
2024-05-09T06:13:07.920Z,13.37
2024-05-09T06:15:34.839Z,13.53
2024-05-09T06:18:01.843Z,13.77
2024-05-09T06:20:35.564Z,13.99
2024-05-09T06:23:07.864Z,14.12
2024-05-09T06:25:36.004Z,14.26
2024-05-09T06:28:03.053Z,14.35
2024-05-09T06:30:37.254Z,14.59
2024-05-09T06:33:07.826Z,14.71
2024-05-09T06:35:35.149Z,14.83
2024-05-09T06:38:02.275Z,14.95
2024-05-09T06:40:36.368Z,15.01
2024-05-09T06:43:10.641Z,15.15
2024-05-09T06:45:37.347Z,15.27
2024-05-09T06:48:04.431Z,15.42
2024-05-09T06:50:37.037Z,15.56
2024-05-09T06:53:05.370Z,15.68
2024-05-09T06:55:32.121Z,15.81
2024-05-09T06:57:58.824Z,15.90
2024-05-09T07:00:34.406Z,15.98
2024-05-09T07:03:14.781Z,16.16
2024-05-09T07:05:43.994Z,16.20
2024-05-09T07:08:10.855Z,16.28
2024-05-09T07:10:38.318Z,16.41
2024-05-09T07:13:09.864Z,16.55
2024-05-09T07:15:36.549Z,16.64
2024-05-09T07:18:19.937Z,16.67
2024-05-09T07:20:48.835Z,16.87
2024-05-09T07:23:16.917Z,16.97
2024-05-09T07:25:43.683Z,17.14
2024-05-09T07:28:15.079Z,17.28
2024-05-09T07:30:42.231Z,17.43
2024-05-09T07:33:09.294Z,17.49
2024-05-09T07:35:36.241Z,17.53
2024-05-09T07:38:03.121Z,17.60
2024-05-09T07:40:35.800Z,17.69
2024-05-09T07:43:08.209Z,17.81
2024-05-09T07:52:32.423Z,18.18
2024-05-09T07:55:53.879Z,18.53
2024-05-09T07:58:20.754Z,18.65
2024-05-09T08:00:47.504Z,18.77
2024-05-09T08:03:14.685Z,18.93
2024-05-09T08:05:41.526Z,19.16
2024-05-09T08:08:08.770Z,19.46
2024-05-09T08:10:35.654Z,19.51
2024-05-09T08:13:02.531Z,19.56
2024-05-09T08:15:29.593Z,19.71
2024-05-09T08:17:56.658Z,19.64
2024-05-09T08:20:30.927Z,19.86
2024-05-09T08:23:01.564Z,19.87
2024-05-09T08:25:29.010Z,19.83
2024-05-09T08:27:55.820Z,19.82
2024-05-09T08:30:32.502Z,19.82
2024-05-09T08:33:04.066Z,19.83
2024-05-09T08:35:30.933Z,19.84
2024-05-09T08:37:58.157Z,19.96
2024-05-09T08:40:31.107Z,20.16
2024-05-09T08:43:06.676Z,20.19
2024-05-09T08:45:35.089Z,20.25
2024-05-09T08:48:05.768Z,20.32
2024-05-09T08:50:38.717Z,20.45
2024-05-09T08:53:10.033Z,20.59
2024-05-09T08:55:40.572Z,20.51
2024-05-09T08:58:15.077Z,20.38
2024-05-09T09:00:43.787Z,20.21
2024-05-09T09:03:15.070Z,19.92
2024-05-09T09:05:51.399Z,19.83
2024-05-09T09:08:18.622Z,20.12
2024-05-09T09:10:47.574Z,20.41
2024-05-09T09:13:14.571Z,20.63
2024-05-09T09:15:49.191Z,20.82
2024-05-09T09:18:17.295Z,20.77
2024-05-09T09:20:44.794Z,20.96
2024-05-09T09:23:11.551Z,21.17
2024-05-09T09:25:41.205Z,21.30
2024-05-09T09:28:09.123Z,21.42
2024-05-09T09:30:43.221Z,21.05
2024-05-09T09:33:10.654Z,20.69
2024-05-09T09:35:40.202Z,20.41
2024-05-09T09:38:07.948Z,20.26
2024-05-09T09:40:44.806Z,20.54
2024-05-09T09:43:20.564Z,20.44
2024-05-09T09:45:53.159Z,20.23
2024-05-09T09:48:21.631Z,19.99
2024-05-09T09:50:52.187Z,19.83
2024-05-09T09:53:19.653Z,19.73
2024-05-09T09:55:46.937Z,19.61
2024-05-09T09:58:16.305Z,19.42
2024-05-09T10:00:43.571Z,19.40
2024-05-09T10:03:10.789Z,19.36
2024-05-09T10:05:39.272Z,19.39
2024-05-09T10:08:09.876Z,19.46
2024-05-09T10:10:36.928Z,19.54
2024-05-09T10:13:04.842Z,19.86
2024-05-09T10:15:46.593Z,20.07
2024-05-09T10:18:14.574Z,20.08
2024-05-09T10:20:45.306Z,20.14
2024-05-09T10:23:32.598Z,20.38
2024-05-09T10:26:04.514Z,20.42
2024-05-09T10:28:33.067Z,20.23
2024-05-09T10:31:11.747Z,20.13
2024-05-09T10:33:39.797Z,20.13
2024-05-09T10:36:14.275Z,20.22
2024-05-09T10:38:42.809Z,20.20
2024-05-09T10:41:09.572Z,20.18
2024-05-09T10:43:40.927Z,20.04
2024-05-09T10:46:07.899Z,20.04
2024-05-09T10:48:36.337Z,20.08
2024-05-09T10:51:06.017Z,20.15
2024-05-09T10:53:40.408Z,20.37
2024-05-09T10:56:07.335Z,20.51
2024-05-09T10:58:33.984Z,20.59
2024-05-09T11:01:02.446Z,20.62
2024-05-09T11:03:31.577Z,20.73
2024-05-09T11:05:58.994Z,20.67
2024-05-09T11:08:26.099Z,20.61
2024-05-09T11:10:56.310Z,20.53
2024-05-09T11:13:30.281Z,20.45
2024-05-09T11:15:57.338Z,20.60
2024-05-09T11:18:26.635Z,20.68
2024-05-09T11:20:55.718Z,20.73
2024-05-09T11:23:26.164Z,20.72
2024-05-09T11:25:54.486Z,20.72
2024-05-09T11:28:22.611Z,20.74
2024-05-09T11:30:50.519Z,20.79
2024-05-09T11:33:19.291Z,20.73
2024-05-09T11:35:46.979Z,20.73
2024-05-09T11:38:14.296Z,20.81
2024-05-09T11:40:41.711Z,20.73
2024-05-09T11:43:08.697Z,20.74
2024-05-09T11:45:35.453Z,20.67
2024-05-09T11:48:03.727Z,20.61
2024-05-09T11:50:35.215Z,20.57
2024-05-09T11:53:02.958Z,20.59
2024-05-09T11:55:29.718Z,20.51
2024-05-09T11:57:57.317Z,20.51
2024-05-09T12:00:33.253Z,20.52
2024-05-09T12:03:05.433Z,20.54
2024-05-09T12:05:33.759Z,20.56
2024-05-09T12:08:01.782Z,20.55
2024-05-09T12:10:33.498Z,20.51
2024-05-09T12:13:04.896Z,20.47
2024-05-09T12:15:33.953Z,20.44
2024-05-09T12:18:03.424Z,20.44
2024-05-09T12:20:36.815Z,20.43
2024-05-09T12:23:07.525Z,20.42
2024-05-09T12:25:35.986Z,20.44
2024-05-09T12:28:02.893Z,20.50
2024-05-09T12:30:36.368Z,20.36
2024-05-09T12:33:08.310Z,20.32
2024-05-09T12:35:35.298Z,20.29
2024-05-09T12:38:02.190Z,20.35
2024-05-09T12:40:35.724Z,20.34
2024-05-09T12:43:08.879Z,20.33
2024-05-09T12:45:36.752Z,20.25
2024-05-09T12:48:06.922Z,20.30
2024-05-09T12:50:34.700Z,20.27
2024-05-09T12:53:04.108Z,20.30
2024-05-09T12:55:37.763Z,20.42
2024-05-09T12:58:12.146Z,20.42
2024-05-09T13:00:39.247Z,20.53
2024-05-09T13:03:06.305Z,20.45
2024-05-09T13:05:33.305Z,20.39
2024-05-09T13:08:00.823Z,20.36
2024-05-09T13:10:32.107Z,20.46
2024-05-09T13:13:01.746Z,20.45
2024-05-09T13:15:30.302Z,20.37
2024-05-09T13:18:01.533Z,20.49
2024-05-09T13:20:33.543Z,20.59
2024-05-09T13:23:03.563Z,20.67
2024-05-09T13:25:30.289Z,20.64
2024-05-09T13:27:57.844Z,20.56
2024-05-09T13:30:33.743Z,20.60
2024-05-09T13:33:06.571Z,20.56
2024-05-09T13:35:35.423Z,20.53
2024-05-09T13:38:03.188Z,20.47
2024-05-09T13:40:34.329Z,20.44
2024-05-09T13:43:04.078Z,20.44
2024-05-09T13:45:31.196Z,20.40
2024-05-09T13:47:58.255Z,20.40
2024-05-09T13:50:33.205Z,20.35
2024-05-09T13:53:03.157Z,20.18
2024-05-09T13:55:29.867Z,20.13
2024-05-09T13:57:56.731Z,20.20
2024-05-09T14:00:37.757Z,20.13
2024-05-09T14:03:10.702Z,20.11
2024-05-09T14:05:38.207Z,20.08
2024-05-09T14:08:06.987Z,20.14
2024-05-09T14:10:33.794Z,20.23
2024-05-09T14:13:01.275Z,20.35
2024-05-09T14:15:28.330Z,20.21
2024-05-09T14:17:55.636Z,20.11
2024-05-09T14:20:30.525Z,20.03
2024-05-09T14:22:59.910Z,20.02
2024-05-09T14:25:31.976Z,20.14
2024-05-09T14:27:59.451Z,20.22
2024-05-09T14:30:34.693Z,20.12
2024-05-09T14:33:05.422Z,20.04
2024-05-09T14:35:32.727Z,20.16
2024-05-09T14:37:59.552Z,20.23
2024-05-09T14:40:36.681Z,20.14
2024-05-09T14:43:08.982Z,20.18
2024-05-09T14:45:35.913Z,20.29
2024-05-09T14:48:03.614Z,20.33
2024-05-09T14:50:36.156Z,20.23
2024-05-09T14:53:09.942Z,20.33
2024-05-09T14:55:39.101Z,20.53
2024-05-09T14:58:07.368Z,20.56
2024-05-09T15:00:38.367Z,20.46
2024-05-09T15:03:06.797Z,20.53
2024-05-09T15:05:33.519Z,20.55
2024-05-09T15:08:00.297Z,20.57
2024-05-09T15:10:34.102Z,20.65
2024-05-09T15:13:03.379Z,20.70
2024-05-09T15:15:30.275Z,20.58
2024-05-09T15:17:57.406Z,20.63
2024-05-09T15:20:31.577Z,20.64
2024-05-09T15:23:02.399Z,20.50
2024-05-09T15:25:29.446Z,20.45
2024-05-09T15:27:56.543Z,20.45
2024-05-09T15:30:30.457Z,20.45
2024-05-09T15:33:00.565Z,20.55
2024-05-09T15:35:27.612Z,20.59
2024-05-09T15:37:54.426Z,20.42
2024-05-09T15:40:30.792Z,20.40
2024-05-09T15:43:04.888Z,20.56
2024-05-09T15:45:31.962Z,20.55
2024-05-09T15:47:59.307Z,20.49
2024-05-09T15:50:35.655Z,20.56
2024-05-09T15:53:06.837Z,20.49
2024-05-09T15:55:34.809Z,20.39
2024-05-09T15:58:02.895Z,20.35
2024-05-09T16:00:37.369Z,20.35
2024-05-09T16:03:08.183Z,20.32
2024-05-09T16:05:35.096Z,20.33
2024-05-09T16:08:02.294Z,20.30
2024-05-09T16:10:32.807Z,20.30
2024-05-09T16:13:01.903Z,20.24
2024-05-09T16:15:29.178Z,20.09
2024-05-09T16:17:56.044Z,19.97
2024-05-09T16:20:34.189Z,20.02
2024-05-09T16:23:06.407Z,19.99
2024-05-09T16:25:33.355Z,19.96
2024-05-09T16:28:00.349Z,20.00
2024-05-09T16:30:34.067Z,20.04
2024-05-09T16:33:04.087Z,20.03
2024-05-09T16:35:31.518Z,20.04
2024-05-09T16:37:58.208Z,20.07
2024-05-09T16:40:33.952Z,19.94
2024-05-09T16:43:05.593Z,19.92
2024-05-09T16:45:33.155Z,19.88
2024-05-09T16:48:00.511Z,19.90
2024-05-09T16:50:32.592Z,19.90
2024-05-09T16:53:02.003Z,19.96
2024-05-09T16:55:28.937Z,19.90
2024-05-09T16:57:56.869Z,19.85
2024-05-09T17:00:35.148Z,19.75
2024-05-09T17:03:07.776Z,19.71
2024-05-09T17:05:35.571Z,19.65
2024-05-09T17:08:03.102Z,19.63
2024-05-09T17:10:33.568Z,19.66
2024-05-09T17:13:03.220Z,19.73
2024-05-09T17:15:31.967Z,19.78
2024-05-09T17:17:58.931Z,19.67
2024-05-09T17:20:32.285Z,19.74
2024-05-09T17:23:02.836Z,19.67
2024-05-09T17:25:29.627Z,19.71
2024-05-09T17:27:57.148Z,19.76
2024-05-09T17:30:29.358Z,19.77
2024-05-09T17:33:03.347Z,19.77
2024-05-09T17:35:30.466Z,19.67
2024-05-09T17:37:58.309Z,19.65
2024-05-09T17:40:32.817Z,19.66
2024-05-09T17:43:03.226Z,19.67
2024-05-09T17:45:30.494Z,19.54
2024-05-09T17:47:58.040Z,19.51
2024-05-09T17:50:31.363Z,19.49
2024-05-09T17:53:04.477Z,19.50
2024-05-09T17:55:31.335Z,19.39
2024-05-09T17:57:58.281Z,19.34
2024-05-09T18:00:36.270Z,19.25
2024-05-09T18:03:09.194Z,19.16
2024-05-09T18:05:37.854Z,19.08
2024-05-09T18:08:08.777Z,18.99
2024-05-09T18:10:38.679Z,18.87
2024-05-09T18:13:08.017Z,18.81
2024-05-09T18:15:35.173Z,18.79
2024-05-09T18:18:02.399Z,18.78
2024-05-09T18:20:38.052Z,18.68
2024-05-09T18:23:11.012Z,18.68
2024-05-09T18:25:37.807Z,18.68
2024-05-09T18:28:05.545Z,18.68
2024-05-09T18:30:35.418Z,18.65
2024-05-09T18:33:05.916Z,18.67
2024-05-09T18:35:33.909Z,18.60
2024-05-09T18:38:00.748Z,18.59
2024-05-09T18:40:33.239Z,18.52
2024-05-09T18:43:04.200Z,18.52
2024-05-09T18:45:31.300Z,18.50
2024-05-09T18:47:58.454Z,18.49
2024-05-09T18:50:34.003Z,18.46
2024-05-09T18:53:08.131Z,18.46
2024-05-09T18:55:34.968Z,18.42
2024-05-09T18:58:01.904Z,18.44
2024-05-09T19:00:35.308Z,18.44
2024-05-09T19:03:09.236Z,18.33
2024-05-09T19:05:38.458Z,18.23
2024-05-09T19:08:05.909Z,18.17
2024-05-09T19:10:35.083Z,18.20
2024-05-09T19:13:08.015Z,18.19
2024-05-09T19:15:38.216Z,18.12
2024-05-09T19:18:05.666Z,18.16
2024-05-09T19:20:34.960Z,18.17
2024-05-09T19:23:03.626Z,18.12
2024-05-09T19:25:30.735Z,18.11
2024-05-09T19:27:57.800Z,18.06
2024-05-09T19:30:30.344Z,18.03
2024-05-09T19:33:05.637Z,18.02
2024-05-09T19:35:32.497Z,17.98
2024-05-09T19:37:59.311Z,18.01
2024-05-09T19:40:31.316Z,17.99
2024-05-09T19:43:01.474Z,17.96
2024-05-09T19:45:28.861Z,17.92
2024-05-09T19:47:56.005Z,17.89
2024-05-09T19:50:31.038Z,17.88
2024-05-09T19:53:04.492Z,17.85
2024-05-09T19:55:31.098Z,17.82
2024-05-09T19:57:58.932Z,17.81
2024-05-09T20:00:32.761Z,17.76
2024-05-09T20:03:03.113Z,17.69
2024-05-09T20:05:30.968Z,17.59
2024-05-09T20:07:58.173Z,17.55
2024-05-09T20:10:31.094Z,17.53
2024-05-09T20:13:00.033Z,17.47
2024-05-09T20:15:26.856Z,17.40
2024-05-09T20:17:53.837Z,17.37
2024-05-09T20:20:28.698Z,17.34
2024-05-09T20:23:03.276Z,17.34
2024-05-09T20:25:30.176Z,17.29
2024-05-09T20:27:56.951Z,17.18
2024-05-09T20:30:31.196Z,17.11
2024-05-09T20:33:00.398Z,17.07
2024-05-09T20:35:27.370Z,17.06
2024-05-09T20:37:54.082Z,17.04
2024-05-09T20:40:28.684Z,17.05
2024-05-09T20:43:00.732Z,17.04
2024-05-09T20:45:27.669Z,17.07
2024-05-09T20:47:54.417Z,17.05
2024-05-09T20:50:29.026Z,16.96
2024-05-09T20:53:03.581Z,16.93
2024-05-09T20:55:30.462Z,16.91
2024-05-09T20:57:57.645Z,16.91
2024-05-09T21:00:34.376Z,16.88
2024-05-09T21:03:07.051Z,16.78
2024-05-09T21:05:35.197Z,16.74
2024-05-09T21:08:02.268Z,16.69
2024-05-09T21:10:32.828Z,16.60
2024-05-09T21:13:02.393Z,16.53
2024-05-09T21:15:29.754Z,16.47
2024-05-09T21:17:56.624Z,16.43
2024-05-09T21:20:30.471Z,16.37
2024-05-09T21:23:02.371Z,16.41
2024-05-09T21:25:29.421Z,16.36
2024-05-09T21:27:56.173Z,16.33
2024-05-09T21:30:32.502Z,16.34
2024-05-09T21:33:12.961Z,16.31
2024-05-09T21:35:42.548Z,16.25
2024-05-09T21:38:09.469Z,16.23
2024-05-09T21:40:37.324Z,16.18
2024-05-09T21:43:06.488Z,16.16
2024-05-09T21:45:34.443Z,16.11
2024-05-09T21:48:05.266Z,16.04
2024-05-09T21:50:39.323Z,16.04
2024-05-09T21:53:08.383Z,16.05
2024-05-09T21:55:35.188Z,16.00
2024-05-09T21:58:02.082Z,16.01
2024-05-09T22:00:35.775Z,16.02
2024-05-09T22:03:05.760Z,15.99
2024-05-09T22:05:32.998Z,15.98
2024-05-09T22:08:00.064Z,15.94
2024-05-09T22:10:33.003Z,15.89
2024-05-09T22:13:02.164Z,15.90
2024-05-09T22:15:29.074Z,15.88
2024-05-09T22:17:56.941Z,15.85
2024-05-09T22:20:33.085Z,15.85
2024-05-09T22:23:03.962Z,15.83
2024-05-09T22:25:31.729Z,15.80
2024-05-09T22:27:59.135Z,15.77
2024-05-09T22:30:34.336Z,15.73
2024-05-09T22:33:05.854Z,15.71
2024-05-09T22:35:32.914Z,15.72
2024-05-09T22:37:59.841Z,15.70
2024-05-09T22:40:38.163Z,15.71
2024-05-09T22:43:13.105Z,15.68
2024-05-09T22:45:39.929Z,15.65
2024-05-09T22:48:08.065Z,15.58
2024-05-09T22:50:34.943Z,15.54
2024-05-09T22:53:01.799Z,15.48
2024-05-09T22:55:28.617Z,15.44
2024-05-09T22:57:55.641Z,15.40
2024-05-09T23:00:30.693Z,15.37
2024-05-09T23:03:00.418Z,15.33
2024-05-09T23:05:27.569Z,15.32
2024-05-09T23:07:54.453Z,15.32
2024-05-09T23:10:28.176Z,15.28
2024-05-09T23:13:01.743Z,15.25
2024-05-09T23:15:28.847Z,15.24
2024-05-09T23:17:55.851Z,15.19
2024-05-09T23:20:33.163Z,15.17
2024-05-09T23:23:04.596Z,15.15
2024-05-09T23:25:31.293Z,15.12
2024-05-09T23:27:58.011Z,15.08
2024-05-09T23:30:33.734Z,15.03
2024-05-09T23:33:05.788Z,15.00
2024-05-09T23:35:32.657Z,14.95
2024-05-09T23:37:59.640Z,14.91
2024-05-09T23:40:37.043Z,14.87
2024-05-09T23:43:07.068Z,14.87
2024-05-09T23:45:34.032Z,14.85
2024-05-09T23:48:01.170Z,14.80
2024-05-09T23:50:34.399Z,14.75
2024-05-09T23:53:04.870Z,14.72
2024-05-09T23:55:32.313Z,14.71
2024-05-09T23:57:59.503Z,14.66
